createdAt,value
2018-05-10T00:02:03.001Z,82.62
2018-05-10T00:04:29.777Z,83.48
2018-05-10T00:06:56.454Z,83.26
2018-05-10T00:09:26.729Z,83.40
2018-05-10T00:11:53.402Z,83.37
2018-05-10T00:14:19.982Z,82.76
2018-05-10T00:16:46.587Z,83.11
2018-05-10T00:19:17.419Z,82.29
2018-05-10T00:21:44.121Z,82.33
2018-05-10T00:24:11.121Z,82.28
2018-05-10T00:26:37.606Z,82.45
2018-05-10T00:29:07.857Z,83.15
2018-05-10T00:31:34.478Z,83.17
2018-05-10T00:34:01.147Z,83.01
2018-05-10T00:36:27.705Z,83.11
2018-05-10T00:39:00.305Z,82.82
2018-05-10T00:41:27.024Z,83.33
2018-05-10T00:43:54.417Z,82.57
2018-05-10T00:46:21.084Z,83.20
2018-05-10T00:48:51.580Z,83.19
2018-05-10T00:51:18.242Z,83.31
2018-05-10T00:53:44.950Z,83.07
2018-05-10T00:56:11.574Z,82.92
2018-05-10T00:58:39.365Z,82.17
2018-05-10T01:01:06.008Z,83.64
2018-05-10T01:03:32.997Z,83.78
2018-05-10T01:05:59.534Z,83.87
2018-05-10T01:08:26.246Z,83.83
2018-05-10T01:10:52.879Z,83.43
2018-05-10T01:13:19.618Z,83.73
2018-05-10T01:15:46.909Z,83.88
2018-05-10T01:18:13.906Z,83.17
2018-05-10T01:20:40.521Z,84.64
2018-05-10T01:23:07.121Z,83.56
2018-05-10T01:25:33.723Z,84.40
2018-05-10T01:28:01.559Z,83.94
2018-05-10T01:30:28.953Z,84.14
2018-05-10T01:32:55.541Z,83.95
2018-05-10T01:35:34.064Z,84.23
2018-05-10T01:38:04.143Z,84.38
2018-05-10T01:40:31.052Z,83.58
2018-05-10T01:42:57.828Z,83.05
2018-05-10T01:45:24.436Z,83.90
2018-05-10T01:47:54.320Z,84.00
2018-05-10T01:50:20.813Z,83.19
2018-05-10T01:52:47.535Z,83.65
2018-05-10T01:55:14.164Z,83.58
2018-05-10T01:57:47.270Z,83.14
2018-05-10T02:00:14.543Z,82.88
2018-05-10T02:02:41.499Z,83.41
2018-05-10T02:05:08.204Z,83.46
2018-05-10T02:07:36.843Z,83.35
2018-05-10T02:10:03.418Z,82.35
2018-05-10T02:12:30.565Z,82.33
2018-05-10T02:14:57.172Z,82.41
2018-05-10T02:17:27.722Z,82.03
2018-05-10T02:19:54.871Z,82.76
2018-05-10T02:22:21.501Z,82.55
2018-05-10T02:24:48.256Z,82.80
2018-05-10T02:27:18.832Z,82.26
2018-05-10T02:29:45.523Z,82.29
2018-05-10T02:32:12.168Z,81.56
2018-05-10T02:34:38.832Z,82.62
2018-05-10T02:37:09.190Z,81.52
2018-05-10T02:39:35.835Z,80.86
2018-05-10T02:42:02.403Z,81.16
2018-05-10T02:44:29.066Z,81.77
2018-05-10T02:46:57.036Z,81.27
2018-05-10T02:49:23.958Z,81.10
2018-05-10T02:51:50.664Z,82.05
2018-05-10T02:54:17.781Z,81.84
2018-05-10T02:56:47.953Z,81.46
2018-05-10T02:59:14.781Z,82.87
2018-05-10T03:01:41.446Z,83.14
2018-05-10T03:04:08.138Z,83.46
2018-05-10T03:06:34.829Z,82.66
2018-05-10T03:09:09.377Z,81.87
2018-05-10T03:11:36.251Z,81.12
2018-05-10T03:14:02.741Z,80.88
2018-05-10T03:16:29.416Z,80.93
2018-05-10T03:18:56.481Z,80.92
2018-05-10T03:21:23.029Z,81.14
2018-05-10T03:23:49.720Z,82.07
2018-05-10T03:26:16.708Z,81.84
2018-05-10T03:28:49.149Z,81.36
2018-05-10T03:31:15.940Z,80.96
2018-05-10T03:33:42.659Z,81.55
2018-05-10T03:36:09.268Z,80.60
2018-05-10T03:38:39.644Z,79.49
2018-05-10T03:41:06.309Z,80.78
2018-05-10T03:43:33.397Z,80.37
2018-05-10T03:46:00.052Z,79.50
2018-05-10T03:48:36.961Z,79.44
2018-05-10T03:51:03.735Z,79.50
2018-05-10T03:53:31.509Z,79.12
2018-05-10T03:55:58.149Z,79.34
2018-05-10T03:58:32.503Z,79.16
2018-05-10T04:00:59.122Z,78.37
2018-05-10T04:03:37.857Z,78.62
2018-05-10T04:06:16.527Z,78.54
2018-05-10T04:08:58.621Z,80.09
2018-05-10T04:11:27.025Z,79.01
2018-05-10T04:13:53.724Z,79.16
2018-05-10T04:16:20.481Z,79.27
2018-05-10T04:18:47.198Z,79.14
2018-05-10T04:21:14.002Z,79.55
2018-05-10T04:23:40.802Z,78.65
2018-05-10T04:26:07.460Z,79.23
2018-05-10T04:28:44.659Z,78.92
2018-05-10T04:31:11.386Z,78.63
2018-05-10T04:33:38.066Z,78.31
2018-05-10T04:36:04.804Z,78.86
2018-05-10T04:38:37.766Z,77.75
2018-05-10T04:41:04.402Z,77.41
2018-05-10T04:43:31.478Z,77.66
2018-05-10T04:45:58.360Z,78.56
2018-05-10T04:48:31.029Z,77.30
2018-05-10T04:50:57.944Z,76.73
2018-05-10T04:53:24.932Z,75.42
2018-05-10T04:55:52.419Z,76.95
2018-05-10T04:58:22.878Z,74.91
2018-05-10T05:00:49.653Z,75.48
2018-05-10T05:05:48.909Z,75.10
2018-05-10T05:08:19.165Z,75.17
2018-05-10T05:10:45.839Z,75.30
2018-05-10T05:13:12.426Z,74.47
2018-05-10T05:15:39.144Z,75.37
2018-05-10T05:18:09.949Z,76.43
2018-05-10T05:20:36.694Z,75.51
2018-05-10T05:23:03.340Z,76.15
2018-05-10T05:25:30.030Z,75.12
2018-05-10T05:28:00.010Z,76.90
2018-05-10T05:30:27.515Z,76.19
2018-05-10T05:32:54.726Z,76.37
2018-05-10T05:35:21.446Z,77.43
2018-05-10T05:37:53.528Z,76.83
2018-05-10T05:40:20.115Z,76.17
2018-05-10T05:42:46.857Z,76.38
2018-05-10T05:45:13.569Z,76.72
2018-05-10T05:47:43.360Z,76.97
2018-05-10T05:50:09.841Z,76.00
2018-05-10T05:52:36.550Z,75.61
2018-05-10T05:55:03.899Z,75.07
2018-05-10T05:57:36.435Z,74.35
2018-05-10T06:00:03.188Z,73.58
2018-05-10T06:02:29.956Z,74.84
2018-05-10T06:04:56.686Z,73.34
2018-05-10T06:07:27.612Z,71.68
2018-05-10T06:09:54.302Z,73.00
2018-05-10T06:12:20.951Z,70.39
2018-05-10T06:14:47.931Z,69.27
2018-05-10T06:17:17.868Z,69.14
2018-05-10T06:19:44.876Z,69.38
2018-05-10T06:22:11.534Z,70.36
2018-05-10T06:24:38.523Z,67.71
2018-05-10T06:27:09.516Z,69.66
2018-05-10T06:29:36.247Z,71.48
2018-05-10T06:32:02.849Z,70.48
2018-05-10T06:34:29.564Z,70.73
2018-05-10T06:36:59.615Z,70.12
2018-05-10T06:39:26.138Z,71.87
2018-05-10T06:41:52.996Z,71.30
2018-05-10T06:44:19.637Z,71.17
2018-05-10T06:46:52.757Z,70.85
2018-05-10T06:49:19.994Z,70.88
2018-05-10T06:51:46.696Z,70.12
2018-05-10T06:54:13.671Z,70.34
2018-05-10T06:56:54.565Z,69.55
2018-05-10T06:59:21.229Z,70.03
2018-05-10T07:01:47.903Z,69.14
2018-05-10T07:04:14.568Z,68.38
2018-05-10T07:06:44.449Z,69.25
2018-05-10T07:09:11.094Z,69.43
2018-05-10T07:11:37.694Z,67.29
2018-05-10T07:14:04.486Z,68.25
2018-05-10T07:16:45.739Z,68.53
2018-05-10T07:19:12.281Z,66.58
2018-05-10T07:21:39.219Z,65.79
2018-05-10T07:24:05.778Z,66.25
2018-05-10T07:26:33.114Z,66.21
2018-05-10T07:29:00.057Z,63.09
2018-05-10T07:31:26.838Z,64.14
2018-05-10T07:33:54.726Z,65.50
2018-05-10T07:36:22.930Z,65.57
2018-05-10T07:38:49.645Z,65.36
2018-05-10T07:41:16.262Z,64.80
2018-05-10T07:43:43.016Z,65.66
2018-05-10T07:46:09.628Z,66.35
2018-05-10T07:48:36.225Z,66.00
2018-05-10T07:51:02.943Z,66.53
2018-05-10T07:53:29.849Z,65.70
2018-05-10T07:55:56.942Z,66.89
2018-05-10T07:58:25.099Z,65.11
2018-05-10T08:00:51.876Z,66.18
2018-05-10T08:03:18.819Z,65.73
2018-05-10T08:05:45.499Z,65.03
2018-05-10T08:08:17.053Z,65.27
2018-05-10T08:10:43.692Z,64.21
2018-05-10T08:13:10.710Z,64.82
2018-05-10T08:15:37.402Z,64.56
2018-05-10T08:18:05.082Z,63.84
2018-05-10T08:20:31.701Z,62.39
2018-05-10T08:22:58.487Z,63.06
2018-05-10T08:25:25.070Z,63.81
2018-05-10T08:27:56.674Z,62.51
2018-05-10T08:30:23.509Z,63.00
2018-05-10T08:32:50.040Z,63.23
2018-05-10T08:35:16.684Z,63.84
2018-05-10T08:37:48.064Z,63.19
2018-05-10T08:40:14.774Z,63.37
2018-05-10T08:42:41.435Z,63.52
2018-05-10T08:45:08.222Z,63.28
2018-05-10T08:47:40.919Z,63.68
2018-05-10T08:50:07.571Z,61.11
2018-05-10T08:52:34.238Z,62.17
2018-05-10T08:55:00.952Z,61.39
2018-05-10T08:57:31.292Z,61.59
2018-05-10T08:59:58.393Z,61.80
2018-05-10T09:02:25.072Z,58.38
2018-05-10T09:04:51.876Z,59.39
2018-05-10T09:07:29.409Z,56.99
2018-05-10T09:09:55.968Z,58.21
2018-05-10T09:12:22.790Z,56.94
2018-05-10T09:14:49.532Z,55.77
2018-05-10T09:17:19.616Z,56.52
2018-05-10T09:19:46.241Z,57.91
2018-05-10T09:22:13.002Z,59.73
2018-05-10T09:24:39.766Z,61.24
2018-05-10T09:27:12.701Z,62.56
2018-05-10T09:29:39.597Z,61.86
2018-05-10T09:32:06.174Z,61.13
2018-05-10T09:34:32.871Z,59.36
2018-05-10T09:37:00.610Z,57.95
2018-05-10T09:39:27.617Z,58.43
2018-05-10T09:41:54.151Z,57.55
2018-05-10T09:44:20.936Z,58.91
2018-05-10T09:46:50.904Z,58.47
2018-05-10T09:49:17.654Z,59.09
2018-05-10T09:51:44.550Z,59.16
2018-05-10T09:54:11.267Z,59.06
2018-05-10T09:56:41.724Z,60.23
2018-05-10T09:59:08.777Z,61.08
2018-05-10T10:01:35.602Z,61.64
2018-05-10T10:04:02.185Z,62.96
2018-05-10T10:06:42.037Z,62.22
2018-05-10T10:09:08.577Z,60.94
2018-05-10T10:11:35.590Z,61.80
2018-05-10T10:14:02.229Z,62.29
2018-05-10T10:16:32.169Z,61.76
2018-05-10T10:18:58.876Z,61.70
2018-05-10T10:21:25.888Z,63.26
2018-05-10T10:23:52.613Z,65.90
2018-05-10T10:26:20.480Z,68.70
2018-05-10T10:28:47.193Z,68.85
2018-05-10T10:31:13.909Z,69.96
2018-05-10T10:33:40.610Z,70.78
2018-05-10T10:36:10.550Z,71.64
2018-05-10T10:38:37.591Z,71.00
2018-05-10T10:41:04.311Z,70.29
2018-05-10T10:43:31.140Z,68.50
2018-05-10T10:46:01.418Z,67.76
2018-05-10T10:48:29.125Z,65.71
2018-05-10T10:50:55.860Z,65.84
2018-05-10T10:53:22.570Z,65.77
2018-05-10T10:55:49.488Z,64.23
2018-05-10T10:58:16.214Z,65.68
2018-05-10T11:00:42.939Z,63.58
2018-05-10T11:03:09.835Z,63.20
2018-05-10T11:05:43.436Z,65.23
2018-05-10T11:08:10.139Z,67.68
2018-05-10T11:10:36.910Z,68.34
2018-05-10T11:13:03.767Z,70.05
2018-05-10T11:15:32.672Z,72.96
2018-05-10T11:17:59.432Z,75.79
2018-05-10T11:20:26.141Z,76.09
2018-05-10T11:22:52.806Z,77.52
2018-05-10T11:25:19.472Z,79.74
2018-05-10T11:27:50.432Z,80.53
2018-05-10T11:30:17.149Z,78.87
2018-05-10T11:32:43.821Z,79.75
2018-05-10T11:35:10.594Z,78.65
2018-05-10T11:37:38.084Z,78.23
2018-05-10T11:40:05.078Z,79.40
2018-05-10T11:42:31.922Z,77.30
2018-05-10T11:44:58.682Z,76.71
2018-05-10T11:47:30.221Z,75.62
2018-05-10T11:49:57.435Z,75.24
2018-05-10T11:52:24.281Z,75.71
2018-05-10T11:54:50.961Z,77.56
2018-05-10T11:57:18.894Z,74.52
2018-05-10T11:59:45.467Z,74.10
2018-05-10T12:02:12.114Z,74.03
2018-05-10T12:04:38.795Z,76.80
2018-05-10T12:07:10.698Z,75.48
2018-05-10T12:09:37.405Z,75.31
2018-05-10T12:12:03.970Z,74.70
2018-05-10T12:14:30.562Z,77.51
2018-05-10T12:17:07.251Z,76.97
2018-05-10T12:19:34.018Z,75.82
2018-05-10T12:22:00.607Z,73.32
2018-05-10T12:24:27.574Z,71.66
2018-05-10T12:27:00.318Z,72.29
2018-05-10T12:29:26.991Z,71.43
2018-05-10T12:31:53.696Z,72.08
2018-05-10T12:34:20.331Z,71.30
2018-05-10T12:36:47.916Z,70.63
2018-05-10T12:39:14.584Z,72.24
2018-05-10T12:41:41.380Z,71.61
2018-05-10T12:44:08.080Z,72.63
2018-05-10T12:46:35.801Z,72.19
2018-05-10T12:49:03.164Z,74.05
2018-05-10T12:51:29.800Z,74.26
2018-05-10T12:53:56.986Z,75.70
2018-05-10T12:56:29.253Z,75.49
2018-05-10T12:58:55.728Z,76.99
2018-05-10T13:01:22.381Z,76.64
2018-05-10T13:03:49.080Z,76.62
2018-05-10T13:06:21.871Z,77.37
2018-05-10T13:08:48.894Z,76.09
2018-05-10T13:11:15.591Z,76.94
2018-05-10T13:13:42.892Z,76.81
2018-05-10T13:16:16.107Z,77.47
2018-05-10T13:18:42.752Z,76.19
2018-05-10T13:21:09.710Z,77.58
2018-05-10T13:23:37.017Z,78.93
2018-05-10T13:26:07.438Z,78.30
2018-05-10T13:28:34.098Z,78.82
2018-05-10T13:31:00.823Z,80.22
2018-05-10T13:33:27.473Z,79.52
2018-05-10T13:35:57.255Z,79.91
2018-05-10T13:38:24.529Z,80.89
2018-05-10T13:40:50.989Z,80.79
2018-05-10T13:43:17.601Z,80.04
2018-05-10T13:45:51.810Z,80.59
2018-05-10T13:48:18.389Z,79.93
2018-05-10T13:50:45.633Z,79.75
2018-05-10T13:53:12.325Z,79.80
2018-05-10T13:55:39.198Z,79.46
2018-05-10T13:58:05.897Z,80.36
2018-05-10T14:00:32.538Z,80.08
2018-05-10T14:02:59.328Z,77.66
2018-05-10T14:05:26.376Z,79.13
2018-05-10T14:07:52.975Z,78.10
2018-05-10T14:10:19.509Z,78.90
2018-05-10T14:12:46.072Z,78.04
2018-05-10T14:15:13.042Z,78.75
2018-05-10T14:17:39.990Z,78.74
2018-05-10T14:20:06.740Z,78.29
2018-05-10T14:22:33.386Z,78.59
2018-05-10T14:25:00.123Z,77.60
2018-05-10T14:27:26.675Z,76.59
2018-05-10T14:29:53.276Z,75.95
2018-05-10T14:32:19.849Z,77.49
2018-05-10T14:34:46.500Z,77.70
2018-05-10T14:37:13.085Z,78.63
2018-05-10T14:39:39.814Z,78.27
2018-05-10T14:42:06.778Z,77.37
2018-05-10T14:44:33.401Z,78.08
2018-05-10T14:47:01.269Z,78.70
2018-05-10T14:49:27.780Z,78.13
2018-05-10T14:51:54.719Z,78.02
2018-05-10T14:54:21.450Z,78.15
2018-05-10T14:56:52.197Z,78.06
2018-05-10T14:59:18.859Z,77.37
2018-05-10T15:01:45.522Z,77.12
2018-05-10T15:04:12.231Z,77.94
2018-05-10T15:06:39.080Z,79.02
2018-05-10T15:09:05.697Z,79.31
2018-05-10T15:11:32.563Z,79.47
2018-05-10T15:13:59.183Z,80.21
2018-05-10T15:16:33.135Z,81.66
2018-05-10T15:19:00.017Z,81.03
2018-05-10T15:21:26.735Z,82.03
2018-05-10T15:23:53.540Z,81.93
2018-05-10T15:26:28.025Z,82.37
2018-05-10T15:28:54.750Z,82.11
2018-05-10T15:31:21.573Z,81.55
2018-05-10T15:33:48.355Z,81.79
2018-05-10T15:36:18.584Z,81.19
2018-05-10T15:38:45.287Z,81.48
2018-05-10T15:41:11.854Z,81.66
2018-05-10T15:43:38.970Z,82.02
2018-05-10T15:46:05.994Z,80.75
2018-05-10T15:48:32.615Z,81.52
2018-05-10T15:50:59.333Z,82.04
2018-05-10T15:53:26.470Z,82.15
2018-05-10T15:55:58.413Z,81.64
2018-05-10T15:58:25.395Z,82.02
2018-05-10T16:00:52.244Z,82.61
2018-05-10T16:03:19.159Z,82.78
2018-05-10T16:06:00.799Z,81.97
2018-05-10T16:08:27.461Z,81.69
2018-05-10T16:10:54.134Z,81.78
2018-05-10T16:13:20.858Z,81.44
2018-05-10T16:15:48.946Z,81.26
2018-05-10T16:18:15.932Z,82.00
2018-05-10T16:20:42.631Z,81.84
2018-05-10T16:23:09.326Z,82.18
2018-05-10T16:25:40.042Z,82.11
2018-05-10T16:28:07.339Z,82.47
2018-05-10T16:30:34.130Z,82.41
2018-05-10T16:33:00.970Z,81.35
2018-05-10T16:35:31.203Z,81.65
2018-05-10T16:37:57.866Z,82.88
2018-05-10T16:40:24.569Z,81.83
2018-05-10T16:42:51.249Z,81.71
2018-05-10T16:45:18.918Z,83.21
2018-05-10T16:47:45.632Z,83.47
2018-05-10T16:50:12.459Z,82.45
2018-05-10T16:52:39.898Z,83.17
2018-05-10T16:55:13.238Z,82.89
2018-05-10T16:57:39.924Z,83.25
2018-05-10T17:00:06.598Z,83.45
2018-05-10T17:02:33.278Z,83.00
2018-05-10T17:05:17.197Z,82.74
2018-05-10T17:07:44.218Z,82.68
2018-05-10T17:10:11.819Z,82.72
2018-05-10T17:12:38.602Z,82.53
2018-05-10T17:15:12.276Z,82.74
2018-05-10T17:17:39.224Z,82.25
2018-05-10T17:20:05.809Z,82.10
2018-05-10T17:22:32.680Z,81.85
2018-05-10T17:25:03.808Z,82.15
2018-05-10T17:27:30.461Z,82.25
2018-05-10T17:29:57.222Z,81.95
2018-05-10T17:32:23.819Z,81.46
2018-05-10T17:34:53.859Z,81.46
2018-05-10T17:37:20.599Z,80.67
2018-05-10T17:39:47.575Z,79.91
2018-05-10T17:42:14.257Z,79.76
2018-05-10T17:44:46.064Z,81.13
2018-05-10T17:47:12.782Z,81.06
2018-05-10T17:49:39.493Z,81.42
2018-05-10T17:52:06.217Z,80.65
2018-05-10T17:54:33.677Z,81.74
2018-05-10T17:57:00.409Z,81.32
2018-05-10T17:59:27.200Z,81.66
2018-05-10T18:01:54.384Z,80.23
2018-05-10T18:04:21.410Z,81.62
2018-05-10T18:06:48.388Z,82.03
2018-05-10T18:09:14.974Z,82.40
2018-05-10T18:11:42.747Z,83.30
2018-05-10T18:14:09.437Z,83.44
2018-05-10T18:16:36.335Z,83.06
2018-05-10T18:19:02.934Z,83.48
2018-05-10T18:21:29.647Z,83.44
2018-05-10T18:23:56.470Z,83.00
2018-05-10T18:26:26.664Z,83.14
2018-05-10T18:28:53.362Z,83.10
2018-05-10T18:31:20.574Z,83.35
2018-05-10T18:33:47.344Z,83.46
2018-05-10T18:36:17.864Z,83.34
2018-05-10T18:38:44.474Z,83.19
2018-05-10T18:41:10.979Z,82.82
2018-05-10T18:43:37.616Z,83.59
2018-05-10T18:46:04.275Z,83.81
2018-05-10T18:48:31.976Z,83.67
2018-05-10T18:50:58.942Z,83.44
2018-05-10T18:53:25.620Z,83.87
2018-05-10T18:55:53.945Z,83.51
2018-05-10T18:58:22.643Z,83.35
2018-05-10T19:00:50.883Z,83.45
2018-05-10T19:03:17.814Z,83.65
2018-05-10T19:05:44.530Z,83.46
2018-05-10T19:08:11.277Z,83.39
2018-05-10T19:10:37.986Z,83.49
2018-05-10T19:13:04.643Z,82.88
2018-05-10T19:15:31.519Z,82.77
2018-05-10T19:17:57.974Z,83.15
2018-05-10T19:20:24.473Z,82.83
2018-05-10T19:22:51.318Z,82.80
2018-05-10T19:25:18.264Z,82.98
2018-05-10T19:27:45.077Z,82.81
2018-05-10T19:30:11.594Z,82.99
2018-05-10T19:32:38.808Z,82.80
2018-05-10T19:35:06.602Z,82.42
2018-05-10T19:37:33.279Z,82.80
2018-05-10T19:40:00.233Z,82.34
2018-05-10T19:42:27.148Z,82.95
2018-05-10T19:44:58.426Z,83.02
2018-05-10T19:47:25.163Z,82.31
2018-05-10T19:49:51.783Z,82.81
2018-05-10T19:52:18.442Z,82.54
2018-05-10T19:54:50.479Z,82.94
2018-05-10T19:57:17.111Z,82.61
2018-05-10T19:59:43.732Z,82.90
2018-05-10T20:02:10.339Z,82.54
2018-05-10T20:04:41.959Z,82.87
2018-05-10T20:07:08.672Z,82.82
2018-05-10T20:09:35.285Z,83.15
2018-05-10T20:12:01.880Z,82.65
2018-05-10T20:14:31.539Z,82.62
2018-05-10T20:16:58.280Z,82.76
2018-05-10T20:19:24.900Z,82.97
2018-05-10T20:21:51.892Z,83.00
2018-05-10T20:24:22.516Z,82.89
2018-05-10T20:26:49.315Z,82.80
2018-05-10T20:29:16.123Z,81.89
2018-05-10T20:31:42.838Z,82.63
2018-05-10T20:34:16.664Z,82.52
2018-05-10T20:36:43.174Z,82.48
2018-05-10T20:39:09.912Z,82.22
2018-05-10T20:41:36.630Z,81.58
2018-05-10T20:44:03.577Z,81.15
2018-05-10T20:46:30.011Z,81.48
2018-05-10T20:48:56.596Z,81.32
2018-05-10T20:51:23.266Z,81.07
2018-05-10T20:53:50.133Z,81.10
2018-05-10T20:56:22.877Z,81.16
2018-05-10T20:58:49.536Z,81.35
2018-05-10T21:01:16.340Z,82.23
2018-05-10T21:03:43.117Z,81.63
2018-05-10T21:06:11.842Z,82.30
2018-05-10T21:08:38.510Z,81.87
2018-05-10T21:11:05.233Z,81.73
2018-05-10T21:13:32.457Z,81.82
2018-05-10T21:16:00.216Z,81.84
2018-05-10T21:18:27.126Z,82.16
2018-05-10T21:20:53.922Z,82.09
2018-05-10T21:23:21.791Z,82.40
2018-05-10T21:25:48.499Z,82.03
2018-05-10T21:28:15.498Z,81.83
2018-05-10T21:30:42.956Z,82.20
2018-05-10T21:33:09.660Z,81.96
2018-05-10T21:35:40.155Z,82.22
2018-05-10T21:38:06.787Z,81.94
2018-05-10T21:40:33.803Z,82.38
2018-05-10T21:43:00.476Z,82.08
2018-05-10T21:45:31.314Z,82.36
2018-05-10T21:47:58.447Z,82.22
2018-05-10T21:50:26.837Z,81.69
2018-05-10T21:52:53.417Z,81.31
2018-05-10T21:55:21.107Z,81.12
2018-05-10T21:57:48.863Z,80.75
2018-05-10T22:00:15.558Z,80.79
2018-05-10T22:02:42.175Z,80.61
2018-05-10T22:05:19.346Z,80.32
2018-05-10T22:07:45.981Z,80.24
2018-05-10T22:10:12.532Z,80.37
2018-05-10T22:12:39.177Z,80.56
2018-05-10T22:15:09.599Z,80.27
2018-05-10T22:17:36.064Z,80.11
2018-05-10T22:20:02.575Z,80.05
2018-05-10T22:22:30.040Z,80.03
2018-05-10T22:25:00.556Z,79.69
2018-05-10T22:27:27.516Z,79.94
2018-05-10T22:29:54.205Z,80.30
2018-05-10T22:32:20.910Z,80.33
2018-05-10T22:34:48.831Z,79.66
2018-05-10T22:37:15.423Z,80.08
2018-05-10T22:39:46.212Z,79.07
2018-05-10T22:42:13.253Z,77.11
2018-05-10T22:44:40.749Z,76.16
2018-05-10T22:47:07.487Z,76.41
2018-05-10T22:49:34.223Z,76.76
2018-05-10T22:52:01.626Z,76.77
2018-05-10T22:54:34.885Z,76.56
2018-05-10T22:57:01.505Z,77.39
2018-05-10T22:59:28.522Z,77.09
2018-05-10T23:01:55.187Z,77.24
2018-05-10T23:04:35.938Z,77.70
2018-05-10T23:07:02.605Z,77.44
2018-05-10T23:09:29.703Z,77.45
2018-05-10T23:11:56.303Z,78.12
2018-05-10T23:14:23.250Z,77.77
2018-05-10T23:16:50.249Z,77.80
2018-05-10T23:19:16.897Z,77.89
2018-05-10T23:21:43.622Z,77.80
2018-05-10T23:24:11.537Z,78.08
2018-05-10T23:26:38.133Z,78.22
2018-05-10T23:29:04.712Z,78.01
2018-05-10T23:31:31.318Z,78.79
2018-05-10T23:34:05.698Z,79.07
2018-05-10T23:36:32.442Z,77.94
2018-05-10T23:38:59.646Z,77.92
2018-05-10T23:41:26.352Z,78.43
2018-05-10T23:43:54.195Z,79.10
2018-05-10T23:46:20.744Z,79.33
2018-05-10T23:48:47.300Z,79.40
2018-05-10T23:51:13.982Z,79.39
2018-05-10T23:53:40.576Z,79.84
2018-05-10T23:56:07.203Z,80.45
2018-05-10T23:58:34.400Z,80.62
